Parnaiba, Parnaiba International Airport (SBPB)

NameParnaiba International Airport
CityParnaiba
CountryBrazil
ICAOSBPB
IATAPHB
Altitude7 m
CoordinatesGoogle Map
Live Air TrafficLiveATC.net
METARSBPB 242145Z 07008KT 9999 FEW020 28/24 Q1011
2019-06-24 21:45:00 Wind: East-Northeast (70°) 4.12 m/s - Visibility: > 10000 m - Temperature: 28 °C - Dew point: 24 °C - Humidity: 78.9% - Pressure: 1011 hPa

Sorry, no flights used the airport in this database.